Skip Navigation Links Skip Navigation Links

Current Weather

Roanoke Regional/Woodrum Field, Roanoke, Va.

For information only: do not use for flight planning or navigation.
Latest weather
Observation time Thursday, October 18, 2018 12:54 AM EDT
Local time Thursday, October 18, 2018 1:35 AM EDT
Flight conditions Visual Meteorological Conditions
Winds
Wind direction West-Northwest (300°)
Wind speed 9 mph
Visibility 10 mi.
Sky condition
Ceiling unlimited
Sky clear
Temperature 55°F
Dewpoint 36°F
Altimeter 30.29 in.Hg
Derived measurements
Relative humidity 48%
Density altitude 601 ft.
Sea-level pressure 30.28 in.Hg
Climate data
Temperature minimum, last 24 hours 53°F
Temperature maximum, last 24 hours 68°F
Remarks
Automated weather observing station with precipitation discriminator.
METAR KROA 180454Z 30008KT 10SM CLR 13/02 A3029 RMK AO2 SLP254 T01280022 402000117

Settings

Location code

InnerDrive.Weather 4.0.6770.0 Release CLR 4.0.30319.42000
Copyright ©2018 Inner Drive Technology. All rights reserved. Portions Copyright ©1986-2018 David Braverman.

Find weather

Site navigation


Skip Navigation Links

Place info

Page info

PayPal - The safer, easier way to pay online!

Return home.

Copyright ©2018 Inner Drive Technology. Purveyors of fine, hand-crafted computer software. Page printed 2018-10-18T05:35:05 UTC.